sensor_id;sensor_type;location;lat;lon;timestamp;temperature;humidity
28087;DHT22;15392;48.912;8.380;2022-08-02T00:01:34;27.20;38.20
28087;DHT22;15392;48.912;8.380;2022-08-02T00:04:00;27.20;38.20
28087;DHT22;15392;48.912;8.380;2022-08-02T00:06:26;27.20;38.10
28087;DHT22;15392;48.912;8.380;2022-08-02T00:08:52;27.20;38.00
28087;DHT22;15392;48.912;8.380;2022-08-02T00:11:19;27.20;38.10
28087;DHT22;15392;48.912;8.380;2022-08-02T00:13:45;27.20;38.10
28087;DHT22;15392;48.912;8.380;2022-08-02T00:16:12;27.20;38.10
28087;DHT22;15392;48.912;8.380;2022-08-02T00:18:38;27.20;38.20
28087;DHT22;15392;48.912;8.380;2022-08-02T00:21:04;27.20;38.20
28087;DHT22;15392;48.912;8.380;2022-08-02T00:23:29;27.20;38.20
28087;DHT22;15392;48.912;8.380;2022-08-02T00:25:55;27.30;38.30
28087;DHT22;15392;48.912;8.380;2022-08-02T00:28:23;27.20;38.10
28087;DHT22;15392;48.912;8.380;2022-08-02T00:30:49;27.20;38.10
28087;DHT22;15392;48.912;8.380;2022-08-02T00:33:15;27.20;38.20
28087;DHT22;15392;48.912;8.380;2022-08-02T00:35:40;27.20;38.20
28087;DHT22;15392;48.912;8.380;2022-08-02T00:38:06;27.20;38.20
28087;DHT22;15392;48.912;8.380;2022-08-02T00:40:32;27.10;38.80
28087;DHT22;15392;48.912;8.380;2022-08-02T00:43:09;27.10;38.20
28087;DHT22;15392;48.912;8.380;2022-08-02T00:45:37;27.10;39.20
28087;DHT22;15392;48.912;8.380;2022-08-02T00:48:05;27.10;38.30
28087;DHT22;15392;48.912;8.380;2022-08-02T00:50:32;27.00;38.30
28087;DHT22;15392;48.912;8.380;2022-08-02T00:52:59;27.00;38.30
28087;DHT22;15392;48.912;8.380;2022-08-02T00:55:26;27.00;38.40
28087;DHT22;15392;48.912;8.380;2022-08-02T00:57:53;27.00;38.60
28087;DHT22;15392;48.912;8.380;2022-08-02T01:00:19;27.00;38.50
28087;DHT22;15392;48.912;8.380;2022-08-02T01:02:45;27.00;38.50
28087;DHT22;15392;48.912;8.380;2022-08-02T01:05:12;27.00;38.50
28087;DHT22;15392;48.912;8.380;2022-08-02T01:07:38;27.00;38.60
28087;DHT22;15392;48.912;8.380;2022-08-02T01:10:05;26.90;38.60
28087;DHT22;15392;48.912;8.380;2022-08-02T01:12:31;26.90;38.50
28087;DHT22;15392;48.912;8.380;2022-08-02T01:15:08;26.90;38.50
28087;DHT22;15392;48.912;8.380;2022-08-02T01:23:52;26.70;39.70
28087;DHT22;15392;48.912;8.380;2022-08-02T01:27:36;26.70;40.00
28087;DHT22;15392;48.912;8.380;2022-08-02T01:30:01;26.70;40.00
28087;DHT22;15392;48.912;8.380;2022-08-02T01:32:32;26.60;38.60
28087;DHT22;15392;48.912;8.380;2022-08-02T01:35:14;26.60;39.00
28087;DHT22;15392;48.912;8.380;2022-08-02T01:37:47;26.50;40.00
28087;DHT22;15392;48.912;8.380;2022-08-02T01:40:22;26.50;39.20
28087;DHT22;15392;48.912;8.380;2022-08-02T01:42:53;26.50;40.00
28087;DHT22;15392;48.912;8.380;2022-08-02T01:45:21;26.50;39.40
28087;DHT22;15392;48.912;8.380;2022-08-02T01:47:50;26.50;39.40
28087;DHT22;15392;48.912;8.380;2022-08-02T01:50:22;26.50;39.30
28087;DHT22;15392;48.912;8.380;2022-08-02T01:52:53;26.50;39.80
28087;DHT22;15392;48.912;8.380;2022-08-02T01:55:31;26.50;39.50
28087;DHT22;15392;48.912;8.380;2022-08-02T01:58:03;26.50;40.20
28087;DHT22;15392;48.912;8.380;2022-08-02T02:00:31;26.50;39.80
28087;DHT22;15392;48.912;8.380;2022-08-02T02:03:00;26.50;39.50
28087;DHT22;15392;48.912;8.380;2022-08-02T02:05:28;26.50;39.40
28087;DHT22;15392;48.912;8.380;2022-08-02T02:07:57;26.50;39.50
28087;DHT22;15392;48.912;8.380;2022-08-02T02:10:30;26.40;39.50
28087;DHT22;15392;48.912;8.380;2022-08-02T02:13:02;26.40;40.00
28087;DHT22;15392;48.912;8.380;2022-08-02T02:15:30;26.40;40.30
28087;DHT22;15392;48.912;8.380;2022-08-02T02:17:58;26.50;39.60
28087;DHT22;15392;48.912;8.380;2022-08-02T02:20:25;26.40;39.50
28087;DHT22;15392;48.912;8.380;2022-08-02T02:22:51;26.50;39.50
28087;DHT22;15392;48.912;8.380;2022-08-02T02:25:20;26.50;39.50
28087;DHT22;15392;48.912;8.380;2022-08-02T02:28:10;26.50;39.60
28087;DHT22;15392;48.912;8.380;2022-08-02T02:30:40;26.50;40.60
28087;DHT22;15392;48.912;8.380;2022-08-02T02:33:08;26.50;39.40
28087;DHT22;15392;48.912;8.380;2022-08-02T02:35:36;26.50;39.40
28087;DHT22;15392;48.912;8.380;2022-08-02T02:38:05;26.40;39.30
28087;DHT22;15392;48.912;8.380;2022-08-02T02:40:34;26.40;39.50
28087;DHT22;15392;48.912;8.380;2022-08-02T02:43:01;26.30;39.60
28087;DHT22;15392;48.912;8.380;2022-08-02T02:45:29;26.30;39.60
28087;DHT22;15392;48.912;8.380;2022-08-02T02:47:57;26.30;39.70
28087;DHT22;15392;48.912;8.380;2022-08-02T02:50:25;26.30;39.60
28087;DHT22;15392;48.912;8.380;2022-08-02T02:52:52;26.20;39.70
28087;DHT22;15392;48.912;8.380;2022-08-02T02:55:19;26.20;39.80
28087;DHT22;15392;48.912;8.380;2022-08-02T02:57:46;26.20;39.90
28087;DHT22;15392;48.912;8.380;2022-08-02T03:00:13;26.20;39.90
28087;DHT22;15392;48.912;8.380;2022-08-02T03:02:42;26.20;40.00
28087;DHT22;15392;48.912;8.380;2022-08-02T03:05:11;26.20;40.10
28087;DHT22;15392;48.912;8.380;2022-08-02T03:07:37;26.20;40.00
28087;DHT22;15392;48.912;8.380;2022-08-02T03:10:05;26.20;39.90
28087;DHT22;15392;48.912;8.380;2022-08-02T03:12:33;26.20;39.90
28087;DHT22;15392;48.912;8.380;2022-08-02T03:15:03;26.10;39.90
28087;DHT22;15392;48.912;8.380;2022-08-02T03:17:37;26.10;40.20
28087;DHT22;15392;48.912;8.380;2022-08-02T03:20:09;26.00;40.40
28087;DHT22;15392;48.912;8.380;2022-08-02T03:22:40;26.10;40.30
28087;DHT22;15392;48.912;8.380;2022-08-02T03:25:07;26.00;40.10
28087;DHT22;15392;48.912;8.380;2022-08-02T03:27:34;26.00;40.30
28087;DHT22;15392;48.912;8.380;2022-08-02T03:29:59;26.00;40.30
28087;DHT22;15392;48.912;8.380;2022-08-02T03:32:25;25.90;40.30
28087;DHT22;15392;48.912;8.380;2022-08-02T03:34:51;25.90;40.30
28087;DHT22;15392;48.912;8.380;2022-08-02T03:37:18;25.90;40.40
28087;DHT22;15392;48.912;8.380;2022-08-02T03:39:44;25.90;40.50
28087;DHT22;15392;48.912;8.380;2022-08-02T03:42:10;25.90;40.60
28087;DHT22;15392;48.912;8.380;2022-08-02T03:44:39;25.90;40.70
28087;DHT22;15392;48.912;8.380;2022-08-02T03:47:06;25.80;40.90
28087;DHT22;15392;48.912;8.380;2022-08-02T03:49:33;25.90;40.70
28087;DHT22;15392;48.912;8.380;2022-08-02T03:52:00;25.80;40.60
28087;DHT22;15392;48.912;8.380;2022-08-02T03:54:26;25.80;40.80
28087;DHT22;15392;48.912;8.380;2022-08-02T03:56:52;25.80;40.70
28087;DHT22;15392;48.912;8.380;2022-08-02T03:59:18;25.70;40.70
28087;DHT22;15392;48.912;8.380;2022-08-02T04:01:46;25.70;40.70
28087;DHT22;15392;48.912;8.380;2022-08-02T04:04:12;25.70;41.00
28087;DHT22;15392;48.912;8.380;2022-08-02T04:06:38;25.70;40.70
28087;DHT22;15392;48.912;8.380;2022-08-02T04:09:03;25.70;40.80
28087;DHT22;15392;48.912;8.380;2022-08-02T04:11:29;25.60;40.80
28087;DHT22;15392;48.912;8.380;2022-08-02T04:13:59;25.60;40.80
28087;DHT22;15392;48.912;8.380;2022-08-02T04:16:33;25.60;40.80
28087;DHT22;15392;48.912;8.380;2022-08-02T04:19:06;25.50;40.70
28087;DHT22;15392;48.912;8.380;2022-08-02T04:21:42;25.50;40.90
28087;DHT22;15392;48.912;8.380;2022-08-02T04:24:10;25.40;41.60
28087;DHT22;15392;48.912;8.380;2022-08-02T04:26:42;25.40;41.10
28087;DHT22;15392;48.912;8.380;2022-08-02T04:29:10;25.30;41.20
28087;DHT22;15392;48.912;8.380;2022-08-02T04:31:37;25.30;41.10
28087;DHT22;15392;48.912;8.380;2022-08-02T04:34:03;25.30;41.10
28087;DHT22;15392;48.912;8.380;2022-08-02T04:36:29;25.20;41.10
28087;DHT22;15392;48.912;8.380;2022-08-02T04:38:55;25.20;41.20
28087;DHT22;15392;48.912;8.380;2022-08-02T04:41:21;25.20;41.20
28087;DHT22;15392;48.912;8.380;2022-08-02T04:43:47;25.10;41.20
28087;DHT22;15392;48.912;8.380;2022-08-02T04:46:13;25.10;41.30
28087;DHT22;15392;48.912;8.380;2022-08-02T04:48:38;25.10;41.40
28087;DHT22;15392;48.912;8.380;2022-08-02T04:51:04;25.00;41.40
28087;DHT22;15392;48.912;8.380;2022-08-02T04:53:30;25.00;41.60
28087;DHT22;15392;48.912;8.380;2022-08-02T04:55:56;25.00;41.70
28087;DHT22;15392;48.912;8.380;2022-08-02T04:58:21;25.00;42.00
28087;DHT22;15392;48.912;8.380;2022-08-02T05:00:47;24.90;42.10
28087;DHT22;15392;48.912;8.380;2022-08-02T05:03:13;24.90;42.00
28087;DHT22;15392;48.912;8.380;2022-08-02T05:05:39;25.00;42.10
28087;DHT22;15392;48.912;8.380;2022-08-02T05:08:04;25.00;42.10
28087;DHT22;15392;48.912;8.380;2022-08-02T05:10:30;25.00;42.20
28087;DHT22;15392;48.912;8.380;2022-08-02T05:12:56;25.00;42.30
28087;DHT22;15392;48.912;8.380;2022-08-02T05:15:22;25.10;42.30
28087;DHT22;15392;48.912;8.380;2022-08-02T05:17:48;25.10;42.30
28087;DHT22;15392;48.912;8.380;2022-08-02T05:20:15;25.10;42.30
28087;DHT22;15392;48.912;8.380;2022-08-02T05:22:42;25.20;42.30
28087;DHT22;15392;48.912;8.380;2022-08-02T05:25:08;25.20;42.30
28087;DHT22;15392;48.912;8.380;2022-08-02T05:27:34;25.20;42.20
28087;DHT22;15392;48.912;8.380;2022-08-02T05:30:00;25.30;42.20
28087;DHT22;15392;48.912;8.380;2022-08-02T05:32:26;25.30;42.10
28087;DHT22;15392;48.912;8.380;2022-08-02T05:34:52;25.40;42.20
28087;DHT22;15392;48.912;8.380;2022-08-02T05:37:18;25.40;42.20
28087;DHT22;15392;48.912;8.380;2022-08-02T05:39:44;25.40;42.20
28087;DHT22;15392;48.912;8.380;2022-08-02T05:42:13;25.50;42.20
28087;DHT22;15392;48.912;8.380;2022-08-02T05:44:41;25.50;42.10
28087;DHT22;15392;48.912;8.380;2022-08-02T05:47:07;25.60;42.00
28087;DHT22;15392;48.912;8.380;2022-08-02T05:49:32;25.60;42.00
28087;DHT22;15392;48.912;8.380;2022-08-02T05:52:09;25.70;42.00
28087;DHT22;15392;48.912;8.380;2022-08-02T05:55:05;25.70;42.70
28087;DHT22;15392;48.912;8.380;2022-08-02T06:00:09;25.80;41.70
28087;DHT22;15392;48.912;8.380;2022-08-02T06:05:49;25.90;42.70
28087;DHT22;15392;48.912;8.380;2022-08-02T06:08:22;25.90;41.90
28087;DHT22;15392;48.912;8.380;2022-08-02T06:10:58;26.00;41.60
28087;DHT22;15392;48.912;8.380;2022-08-02T06:13:26;26.00;41.60
28087;DHT22;15392;48.912;8.380;2022-08-02T06:15:52;26.10;41.80
28087;DHT22;15392;48.912;8.380;2022-08-02T06:18:20;26.10;41.80
28087;DHT22;15392;48.912;8.380;2022-08-02T06:20:49;26.20;41.80
28087;DHT22;15392;48.912;8.380;2022-08-02T06:23:20;26.20;41.90
28087;DHT22;15392;48.912;8.380;2022-08-02T06:25:49;26.20;41.90
28087;DHT22;15392;48.912;8.380;2022-08-02T06:28:17;26.30;41.80
28087;DHT22;15392;48.912;8.380;2022-08-02T06:30:44;26.40;42.00
28087;DHT22;15392;48.912;8.380;2022-08-02T06:33:10;26.40;42.00
28087;DHT22;15392;48.912;8.380;2022-08-02T06:35:59;26.50;41.90
28087;DHT22;15392;48.912;8.380;2022-08-02T06:38:33;26.50;43.00
28087;DHT22;15392;48.912;8.380;2022-08-02T06:41:14;26.50;42.00
28087;DHT22;15392;48.912;8.380;2022-08-02T06:43:49;26.60;41.80
28087;DHT22;15392;48.912;8.380;2022-08-02T06:46:26;26.60;42.20
28087;DHT22;15392;48.912;8.380;2022-08-02T06:48:53;26.70;41.60
28087;DHT22;15392;48.912;8.380;2022-08-02T06:51:19;26.70;41.60
28087;DHT22;15392;48.912;8.380;2022-08-02T06:53:45;26.80;41.60
28087;DHT22;15392;48.912;8.380;2022-08-02T06:56:15;26.80;41.60
28087;DHT22;15392;48.912;8.380;2022-08-02T06:58:53;26.90;41.60
28087;DHT22;15392;48.912;8.380;2022-08-02T07:01:57;27.00;41.50
28087;DHT22;15392;48.912;8.380;2022-08-02T07:04:26;27.00;42.20
28087;DHT22;15392;48.912;8.380;2022-08-02T07:06:55;27.10;41.20
28087;DHT22;15392;48.912;8.380;2022-08-02T07:09:21;27.20;41.50
28087;DHT22;15392;48.912;8.380;2022-08-02T07:11:47;27.20;41.20
28087;DHT22;15392;48.912;8.380;2022-08-02T07:14:15;27.20;41.20
28087;DHT22;15392;48.912;8.380;2022-08-02T07:16:41;27.20;41.20
28087;DHT22;15392;48.912;8.380;2022-08-02T07:19:06;27.30;41.20
28087;DHT22;15392;48.912;8.380;2022-08-02T07:21:32;27.40;41.20
28087;DHT22;15392;48.912;8.380;2022-08-02T07:24:00;27.40;41.20
28087;DHT22;15392;48.912;8.380;2022-08-02T07:26:26;27.50;41.30
28087;DHT22;15392;48.912;8.380;2022-08-02T07:28:51;27.50;41.20
28087;DHT22;15392;48.912;8.380;2022-08-02T07:31:19;27.60;41.20
28087;DHT22;15392;48.912;8.380;2022-08-02T07:36:33;27.70;41.10
28087;DHT22;15392;48.912;8.380;2022-08-02T07:39:00;27.70;41.00
28087;DHT22;15392;48.912;8.380;2022-08-02T07:41:26;27.80;41.00
28087;DHT22;15392;48.912;8.380;2022-08-02T07:43:52;27.90;41.10
28087;DHT22;15392;48.912;8.380;2022-08-02T07:46:18;27.90;41.00
28087;DHT22;15392;48.912;8.380;2022-08-02T07:48:45;28.00;41.00
28087;DHT22;15392;48.912;8.380;2022-08-02T07:51:12;28.10;41.10
28087;DHT22;15392;48.912;8.380;2022-08-02T07:53:39;28.10;40.90
28087;DHT22;15392;48.912;8.380;2022-08-02T07:56:08;28.20;40.90
28087;DHT22;15392;48.912;8.380;2022-08-02T07:58:36;28.20;41.00
28087;DHT22;15392;48.912;8.380;2022-08-02T08:01:02;28.30;40.80
28087;DHT22;15392;48.912;8.380;2022-08-02T08:03:30;28.30;40.70
28087;DHT22;15392;48.912;8.380;2022-08-02T08:05:56;28.40;40.80
28087;DHT22;15392;48.912;8.380;2022-08-02T08:08:25;28.50;40.70
28087;DHT22;15392;48.912;8.380;2022-08-02T08:10:53;28.50;40.70
28087;DHT22;15392;48.912;8.380;2022-08-02T08:13:19;28.60;40.50
28087;DHT22;15392;48.912;8.380;2022-08-02T08:15:47;28.70;40.40
28087;DHT22;15392;48.912;8.380;2022-08-02T08:18:13;28.70;40.30
28087;DHT22;15392;48.912;8.380;2022-08-02T08:20:38;28.80;40.30
28087;DHT22;15392;48.912;8.380;2022-08-02T08:23:04;28.90;40.30
28087;DHT22;15392;48.912;8.380;2022-08-02T08:25:30;29.00;40.20
28087;DHT22;15392;48.912;8.380;2022-08-02T08:27:59;29.00;40.10
28087;DHT22;15392;48.912;8.380;2022-08-02T08:30:25;29.10;40.20
28087;DHT22;15392;48.912;8.380;2022-08-02T08:32:50;29.10;40.00
28087;DHT22;15392;48.912;8.380;2022-08-02T08:35:16;29.20;39.90
28087;DHT22;15392;48.912;8.380;2022-08-02T08:37:42;29.30;39.90
28087;DHT22;15392;48.912;8.380;2022-08-02T08:40:09;29.30;39.70
28087;DHT22;15392;48.912;8.380;2022-08-02T08:42:37;29.40;39.60
28087;DHT22;15392;48.912;8.380;2022-08-02T08:45:05;29.40;39.60
28087;DHT22;15392;48.912;8.380;2022-08-02T08:47:34;29.50;39.60
28087;DHT22;15392;48.912;8.380;2022-08-02T08:50:10;29.50;39.60
28087;DHT22;15392;48.912;8.380;2022-08-02T08:55:22;29.70;39.70
28087;DHT22;15392;48.912;8.380;2022-08-02T08:57:51;29.70;39.40
28087;DHT22;15392;48.912;8.380;2022-08-02T09:00:19;29.80;39.30
28087;DHT22;15392;48.912;8.380;2022-08-02T09:02:45;29.80;39.20
28087;DHT22;15392;48.912;8.380;2022-08-02T09:05:15;29.90;39.20
28087;DHT22;15392;48.912;8.380;2022-08-02T09:07:42;29.90;39.10
28087;DHT22;15392;48.912;8.380;2022-08-02T09:10:38;30.00;39.00
28087;DHT22;15392;48.912;8.380;2022-08-02T09:13:26;30.10;39.20
28087;DHT22;15392;48.912;8.380;2022-08-02T09:16:11;30.10;39.10
28087;DHT22;15392;48.912;8.380;2022-08-02T09:18:39;30.20;39.00
28087;DHT22;15392;48.912;8.380;2022-08-02T09:21:09;30.20;38.80
28087;DHT22;15392;48.912;8.380;2022-08-02T09:23:40;30.20;38.70
28087;DHT22;15392;48.912;8.380;2022-08-02T09:26:12;30.20;38.70
28087;DHT22;15392;48.912;8.380;2022-08-02T09:28:43;30.30;38.80
28087;DHT22;15392;48.912;8.380;2022-08-02T09:31:15;30.40;38.80
28087;DHT22;15392;48.912;8.380;2022-08-02T09:33:45;30.40;38.60
28087;DHT22;15392;48.912;8.380;2022-08-02T09:36:42;30.40;38.50
28087;DHT22;15392;48.912;8.380;2022-08-02T09:39:14;30.50;38.50
28087;DHT22;15392;48.912;8.380;2022-08-02T09:42:06;30.50;38.40
28087;DHT22;15392;48.912;8.380;2022-08-02T09:44:34;30.60;38.30
28087;DHT22;15392;48.912;8.380;2022-08-02T09:47:13;30.60;38.20
28087;DHT22;15392;48.912;8.380;2022-08-02T09:49:45;30.60;38.10
28087;DHT22;15392;48.912;8.380;2022-08-02T09:52:11;30.60;38.00
28087;DHT22;15392;48.912;8.380;2022-08-02T09:54:38;30.70;38.10
28087;DHT22;15392;48.912;8.380;2022-08-02T09:57:04;30.60;38.10
28087;DHT22;15392;48.912;8.380;2022-08-02T09:59:30;30.70;38.10
28087;DHT22;15392;48.912;8.380;2022-08-02T10:01:58;30.70;38.10
28087;DHT22;15392;48.912;8.380;2022-08-02T10:04:26;30.70;38.10
28087;DHT22;15392;48.912;8.380;2022-08-02T10:06:54;30.80;38.00
28087;DHT22;15392;48.912;8.380;2022-08-02T10:09:20;30.80;37.90
28087;DHT22;15392;48.912;8.380;2022-08-02T10:11:47;30.80;37.90
28087;DHT22;15392;48.912;8.380;2022-08-02T10:14:14;30.90;37.80
28087;DHT22;15392;48.912;8.380;2022-08-02T10:16:47;30.90;37.90
28087;DHT22;15392;48.912;8.380;2022-08-02T10:19:13;30.90;37.70
28087;DHT22;15392;48.912;8.380;2022-08-02T10:22:00;30.90;37.70
28087;DHT22;15392;48.912;8.380;2022-08-02T10:24:30;30.90;37.50
28087;DHT22;15392;48.912;8.380;2022-08-02T10:27:00;30.90;37.50
28087;DHT22;15392;48.912;8.380;2022-08-02T10:29:37;31.00;37.50
28087;DHT22;15392;48.912;8.380;2022-08-02T10:32:10;31.10;37.50
28087;DHT22;15392;48.912;8.380;2022-08-02T10:35:03;31.10;37.30
28087;DHT22;15392;48.912;8.380;2022-08-02T10:37:42;31.10;37.30
28087;DHT22;15392;48.912;8.380;2022-08-02T10:40:09;31.10;37.20
28087;DHT22;15392;48.912;8.380;2022-08-02T10:42:50;31.20;37.20
28087;DHT22;15392;48.912;8.380;2022-08-02T10:45:23;31.20;37.20
28087;DHT22;15392;48.912;8.380;2022-08-02T10:48:06;31.20;37.20
28087;DHT22;15392;48.912;8.380;2022-08-02T10:55:58;31.30;36.70
28087;DHT22;15392;48.912;8.380;2022-08-02T10:58:29;31.30;36.80
28087;DHT22;15392;48.912;8.380;2022-08-02T11:01:29;31.40;36.80
28087;DHT22;15392;48.912;8.380;2022-08-02T11:04:17;31.40;36.60
28087;DHT22;15392;48.912;8.380;2022-08-02T11:10:47;31.50;36.70
28087;DHT22;15392;48.912;8.380;2022-08-02T11:13:19;31.50;36.60
28087;DHT22;15392;48.912;8.380;2022-08-02T11:16:06;31.50;36.50
28087;DHT22;15392;48.912;8.380;2022-08-02T11:22:06;31.60;36.70
28087;DHT22;15392;48.912;8.380;2022-08-02T11:24:42;31.60;36.20
28087;DHT22;15392;48.912;8.380;2022-08-02T11:27:25;31.60;36.50
28087;DHT22;15392;48.912;8.380;2022-08-02T11:29:59;31.70;36.20
28087;DHT22;15392;48.912;8.380;2022-08-02T11:32:53;31.70;36.30
28087;DHT22;15392;48.912;8.380;2022-08-02T11:35:47;31.80;35.70
28087;DHT22;15392;48.912;8.380;2022-08-02T11:38:20;31.80;35.80
28087;DHT22;15392;48.912;8.380;2022-08-02T11:40:48;31.90;35.80
28087;DHT22;15392;48.912;8.380;2022-08-02T11:43:24;31.90;36.00
28087;DHT22;15392;48.912;8.380;2022-08-02T11:46:32;31.90;35.60
28087;DHT22;15392;48.912;8.380;2022-08-02T11:52:02;32.00;35.80
28087;DHT22;15392;48.912;8.380;2022-08-02T11:54:58;32.00;35.80
28087;DHT22;15392;48.912;8.380;2022-08-02T11:57:29;32.00;35.70
28087;DHT22;15392;48.912;8.380;2022-08-02T12:00:21;32.10;35.70
28087;DHT22;15392;48.912;8.380;2022-08-02T12:03:00;32.10;35.00
28087;DHT22;15392;48.912;8.380;2022-08-02T12:05:26;32.20;35.50
28087;DHT22;15392;48.912;8.380;2022-08-02T12:08:06;32.20;35.50
28087;DHT22;15392;48.912;8.380;2022-08-02T12:10:49;32.20;35.50
28087;DHT22;15392;48.912;8.380;2022-08-02T12:13:21;32.30;35.70
28087;DHT22;15392;48.912;8.380;2022-08-02T12:16:39;32.40;35.50
28087;DHT22;15392;48.912;8.380;2022-08-02T12:19:53;32.40;34.80
28087;DHT22;15392;48.912;8.380;2022-08-02T12:22:59;32.50;35.20
28087;DHT22;15392;48.912;8.380;2022-08-02T12:25:38;32.50;34.60
28087;DHT22;15392;48.912;8.380;2022-08-02T12:31:16;32.60;34.90
28087;DHT22;15392;48.912;8.380;2022-08-02T12:34:00;32.70;34.50
28087;DHT22;15392;48.912;8.380;2022-08-02T12:37:08;32.70;34.60
28087;DHT22;15392;48.912;8.380;2022-08-02T12:39:58;32.80;34.80
28087;DHT22;15392;48.912;8.380;2022-08-02T12:42:53;32.80;35.30
28087;DHT22;15392;48.912;8.380;2022-08-02T12:45:23;32.90;34.50
28087;DHT22;15392;48.912;8.380;2022-08-02T12:47:53;33.00;35.00
28087;DHT22;15392;48.912;8.380;2022-08-02T12:50:28;33.10;34.90
28087;DHT22;15392;48.912;8.380;2022-08-02T12:53:16;33.20;34.80
28087;DHT22;15392;48.912;8.380;2022-08-02T12:55:55;33.30;33.90
28087;DHT22;15392;48.912;8.380;2022-08-02T12:58:24;33.40;34.00
28087;DHT22;15392;48.912;8.380;2022-08-02T13:00:58;33.60;34.80
28087;DHT22;15392;48.912;8.380;2022-08-02T13:03:25;33.70;34.50
28087;DHT22;15392;48.912;8.380;2022-08-02T13:05:50;33.80;34.40
28087;DHT22;15392;48.912;8.380;2022-08-02T13:08:16;33.90;34.20
28087;DHT22;15392;48.912;8.380;2022-08-02T13:10:43;34.00;34.30
28087;DHT22;15392;48.912;8.380;2022-08-02T13:13:11;34.10;34.10
28087;DHT22;15392;48.912;8.380;2022-08-02T13:15:37;34.20;34.10
28087;DHT22;15392;48.912;8.380;2022-08-02T13:18:03;34.30;33.80
28087;DHT22;15392;48.912;8.380;2022-08-02T13:20:29;34.30;33.70
28087;DHT22;15392;48.912;8.380;2022-08-02T13:22:56;34.40;33.80
28087;DHT22;15392;48.912;8.380;2022-08-02T13:25:22;34.40;33.60
28087;DHT22;15392;48.912;8.380;2022-08-02T13:27:49;34.60;33.80
28087;DHT22;15392;48.912;8.380;2022-08-02T13:30:15;34.60;33.60
28087;DHT22;15392;48.912;8.380;2022-08-02T13:32:43;34.70;33.50
28087;DHT22;15392;48.912;8.380;2022-08-02T13:35:09;34.70;33.10
28087;DHT22;15392;48.912;8.380;2022-08-02T13:37:53;34.70;33.30
28087;DHT22;15392;48.912;8.380;2022-08-02T13:40:35;34.70;33.30
28087;DHT22;15392;48.912;8.380;2022-08-02T13:43:25;34.80;33.10
28087;DHT22;15392;48.912;8.380;2022-08-02T13:45:51;34.80;33.40
28087;DHT22;15392;48.912;8.380;2022-08-02T13:48:17;34.80;33.10
28087;DHT22;15392;48.912;8.380;2022-08-02T13:50:43;34.90;33.00
28087;DHT22;15392;48.912;8.380;2022-08-02T13:53:09;34.80;33.50
28087;DHT22;15392;48.912;8.380;2022-08-02T13:55:34;34.80;32.60
28087;DHT22;15392;48.912;8.380;2022-08-02T13:58:04;34.80;32.70
28087;DHT22;15392;48.912;8.380;2022-08-02T14:00:30;34.80;32.90
28087;DHT22;15392;48.912;8.380;2022-08-02T14:02:56;34.70;32.80
28087;DHT22;15392;48.912;8.380;2022-08-02T14:05:21;34.70;32.90
28087;DHT22;15392;48.912;8.380;2022-08-02T14:07:57;34.70;32.70
28087;DHT22;15392;48.912;8.380;2022-08-02T14:10:24;34.70;32.80
28087;DHT22;15392;48.912;8.380;2022-08-02T14:12:53;34.70;32.70
28087;DHT22;15392;48.912;8.380;2022-08-02T14:15:20;34.70;32.30
28087;DHT22;15392;48.912;8.380;2022-08-02T14:17:46;34.70;32.70
28087;DHT22;15392;48.912;8.380;2022-08-02T14:20:12;34.70;32.60
28087;DHT22;15392;48.912;8.380;2022-08-02T14:22:38;34.70;32.60
28087;DHT22;15392;48.912;8.380;2022-08-02T14:25:05;34.70;32.50
28087;DHT22;15392;48.912;8.380;2022-08-02T14:27:31;34.70;32.50
28087;DHT22;15392;48.912;8.380;2022-08-02T14:29:57;34.70;32.40
28087;DHT22;15392;48.912;8.380;2022-08-02T14:32:26;34.70;32.40
28087;DHT22;15392;48.912;8.380;2022-08-02T14:34:52;34.70;31.90
28087;DHT22;15392;48.912;8.380;2022-08-02T14:37:18;34.70;32.40
28087;DHT22;15392;48.912;8.380;2022-08-02T14:39:44;34.70;32.20
28087;DHT22;15392;48.912;8.380;2022-08-02T14:42:09;34.70;32.20
28087;DHT22;15392;48.912;8.380;2022-08-02T14:44:35;34.70;32.20
28087;DHT22;15392;48.912;8.380;2022-08-02T14:47:01;34.70;32.20
28087;DHT22;15392;48.912;8.380;2022-08-02T14:49:32;34.70;31.90
28087;DHT22;15392;48.912;8.380;2022-08-02T14:51:59;34.70;32.00
28087;DHT22;15392;48.912;8.380;2022-08-02T14:54:25;34.70;32.00
28087;DHT22;15392;48.912;8.380;2022-08-02T14:56:54;34.70;31.90
28087;DHT22;15392;48.912;8.380;2022-08-02T14:59:20;34.60;31.90
28087;DHT22;15392;48.912;8.380;2022-08-02T15:01:46;34.60;31.80
28087;DHT22;15392;48.912;8.380;2022-08-02T15:04:12;34.60;31.90
28087;DHT22;15392;48.912;8.380;2022-08-02T15:06:38;34.60;31.90
28087;DHT22;15392;48.912;8.380;2022-08-02T15:09:04;34.60;31.90
28087;DHT22;15392;48.912;8.380;2022-08-02T15:11:30;34.60;31.80
28087;DHT22;15392;48.912;8.380;2022-08-02T15:13:56;34.60;31.90
28087;DHT22;15392;48.912;8.380;2022-08-02T15:16:30;34.60;31.80
28087;DHT22;15392;48.912;8.380;2022-08-02T15:19:04;34.60;31.80
28087;DHT22;15392;48.912;8.380;2022-08-02T15:21:33;34.60;31.30
28087;DHT22;15392;48.912;8.380;2022-08-02T15:24:02;34.60;31.70
28087;DHT22;15392;48.912;8.380;2022-08-02T15:26:48;34.60;31.80
28087;DHT22;15392;48.912;8.380;2022-08-02T15:29:19;34.60;30.50
28087;DHT22;15392;48.912;8.380;2022-08-02T15:31:46;34.60;31.20
28087;DHT22;15392;48.912;8.380;2022-08-02T15:34:12;34.60;31.60
28087;DHT22;15392;48.912;8.380;2022-08-02T15:36:38;34.60;31.50
28087;DHT22;15392;48.912;8.380;2022-08-02T15:39:05;34.60;31.50
28087;DHT22;15392;48.912;8.380;2022-08-02T15:41:33;34.60;31.60
28087;DHT22;15392;48.912;8.380;2022-08-02T15:43:59;34.60;31.60
28087;DHT22;15392;48.912;8.380;2022-08-02T15:46:26;34.60;31.40
28087;DHT22;15392;48.912;8.380;2022-08-02T15:49:01;34.60;31.30
28087;DHT22;15392;48.912;8.380;2022-08-02T15:51:30;34.60;30.20
28087;DHT22;15392;48.912;8.380;2022-08-02T15:54:19;34.60;30.90
28087;DHT22;15392;48.912;8.380;2022-08-02T15:56:48;34.60;31.30
28087;DHT22;15392;48.912;8.380;2022-08-02T15:59:53;34.60;31.20
28087;DHT22;15392;48.912;8.380;2022-08-02T16:02:48;34.60;30.10
28087;DHT22;15392;48.912;8.380;2022-08-02T16:05:15;34.60;31.00
28087;DHT22;15392;48.912;8.380;2022-08-02T16:07:45;34.60;31.30
28087;DHT22;15392;48.912;8.380;2022-08-02T16:10:15;34.60;31.20
28087;DHT22;15392;48.912;8.380;2022-08-02T16:13:22;34.60;31.00
28087;DHT22;15392;48.912;8.380;2022-08-02T16:16:06;34.60;31.00
28087;DHT22;15392;48.912;8.380;2022-08-02T16:18:32;34.60;31.00
28087;DHT22;15392;48.912;8.380;2022-08-02T16:20:57;34.60;30.90
28087;DHT22;15392;48.912;8.380;2022-08-02T16:23:31;34.60;30.80
28087;DHT22;15392;48.912;8.380;2022-08-02T16:26:15;34.60;30.70
28087;DHT22;15392;48.912;8.380;2022-08-02T16:28:57;34.60;30.40
28087;DHT22;15392;48.912;8.380;2022-08-02T16:36:50;34.60;30.90